• Join FlightAware (Why Join?)
  • Login
  • US Flag 
01:35AM EST


 

Airport Tracker/Info


-or-


 

Live Flight TrackerFlight Track Log ✈ GJS3649 ✈ 06-Jul-2013 ✈ KORD - KBDL

Flight Track Log - Related Links

Times and Time Zones

All times are in EDT time to prevent confusion due to time zone crossing. See the GJS3649 flight status page for this flight to view local times or setup timezone preferences in your user account.

Time Position Orientation Groundspeed Altitude Reporting Facility
EDT Latitude Longitude Course Direction KTS MPH feet Rate Location/Type
12:06PM 41.9167 -87.8833 85° East 191 220 2,600  Level Chicago TRACON
12:07PM 41.9333 -87.8000 75° East 251 289 4,500 2,460 Climbing Chicago TRACON
12:08PM 41.9333 -87.7167 90° East 268 308 7,400 2,880 Climbing Chicago TRACON
12:09PM 41.9681 -87.6017 68° East 284 327 10,600 2,700 Climbing Chicago Center
12:10PM 41.9953 -87.5000 70° East 288 331 13,200 1,980 Climbing Chicago Center
12:11PM 42.0381 -86.9567 85° East  Level Estimated
12:11PM 42.0247 -87.3883 70° East 311 358 14,800  Level Chicago Center
12:12PM 42.0603 -87.2608 69° East 360 414 16,300 1,620 Climbing Chicago Center
12:13PM 42.0953 -87.1264 71° East 379 436 18,200 1,980 Climbing Chicago Center
12:14PM 42.1147 -86.9572 81° East 387 445 20,500 1,800 Climbing Chicago Center
12:15PM 42.1208 -86.8131 87° East 387 445 22,000 1,200 Climbing Chicago Center
12:16PM 42.1247 -86.6722 88° East 402 463 23,000 960 Climbing Chicago Center
12:17PM 42.1308 -86.5139 87° East 420 483 24,000 960 Climbing Chicago Center
12:18PM 42.1361 -86.3494 87° East 436 502 25,000 1,080 Climbing Chicago Center
12:19PM 42.1431 -86.1444 87° East 455 524 26,300 1,080 Climbing Chicago Center
12:20PM 42.1433 -85.9692 90° East 464 534 27,300 900 Climbing Chicago Center
12:21PM 42.1411 -85.8086 91° East 470 541 28,200 960 Climbing Chicago Center
12:22PM 42.1403 -85.5947 90° East 479 551 29,400 1,020 Climbing Chicago Center
12:23PM 42.1372 -85.4150 91° East 482 555 30,400 960 Climbing Chicago Center
12:24PM 42.1350 -85.2367 91° East 480 552 31,400 960 Climbing Chicago Center
12:25PM 42.1342 -85.0528 90° East 489 563 32,400 960 Climbing Chicago Center
12:26PM 42.1311 -84.8719 91° East 486 559 33,400 960 Climbing Chicago Center
12:27PM 42.1283 -84.6917 91° East 485 558 34,400 1,020 Climbing Chicago Center
12:28PM 42.1408 -84.4758 85° East 483 556 35,600 1,020 Climbing Chicago Center
12:29PM 42.1575 -84.2928 83° East 490 564 36,600 660 Climbing Chicago Center
12:31PM 42.1686 -84.1022 85° East 480 552 37,000 180 Climbing Cleveland Center
12:32PM 42.1847 -83.9153 83° East 480 552 37,000  Level Cleveland Center
12:33PM 42.1983 -83.7281 84° East 486 559 37,000  Level Cleveland Center
12:34PM 42.2161 -83.5300 83° East 513 590 37,000  Level Cleveland Center
12:35PM 42.2286 -83.3622 84° East 519 597 37,000  Level Cleveland Center
12:36PM 42.2436 -83.1636 84° East 519 597 37,000  Level Cleveland Center
12:37PM 42.2581 -82.9764 84° East 514 592 37,000  Level Cleveland Center
12:38PM 42.2700 -82.7914 85° East 503 579 37,000  Level Cleveland Center
12:39PM 42.2839 -82.6067 84° East 498 573 37,000  Level Cleveland Center
12:40PM 42.2975 -82.4219 84° East 498 573 37,000  Level Cleveland Center
12:41PM 42.3086 -82.2397 85° East 498 573 37,000  Level Cleveland Center
12:42PM 42.3239 -82.0433 84° East 492 566 37,000  Level Cleveland Center
12:43PM 42.3386 -81.8556 84° East 492 566 37,000  Level Cleveland Center
12:44PM 42.3486 -81.6703 86° East 492 566 37,000  Level Cleveland Center
12:45PM 42.3586 -81.4822 86° East 497 572 37,000  Level Cleveland Center
12:46PM 42.3725 -81.2969 84° East 502 578 37,000  Level Cleveland Center
12:47PM 42.3819 -81.1117 86° East 492 566 37,000  Level Cleveland Center
12:48PM 42.3908 -80.9403 86° East 505 581 37,000  Level Cleveland Center
12:49PM 42.4017 -80.7492 86° East 505 581 37,000  Level Cleveland Center
12:50PM 42.4103 -80.5578 86° East 505 581 37,000  Level Cleveland Center
12:51PM 42.4203 -80.3694 86° East 500 575 37,000  Level Cleveland Center
12:52PM 42.4283 -80.1808 87° East 505 581 37,000  Level Cleveland Center
12:53PM 42.4400 -79.9756 86° East 499 574 37,000  Level Cleveland Center
12:54PM 42.4472 -79.8067 87° East 499 574 37,000  Level Cleveland Center
12:55PM 42.4622 -79.6008 84° East 499 574 37,000  Level Cleveland Center
12:56PM 42.4667 -79.4122 88° East 499 574 37,000  Level Cleveland Center
12:57PM 42.4753 -79.2236 86° East 499 574 37,000  Level Cleveland Center
12:58PM 42.4811 -79.0319 88° East 499 574 37,000  Level Cleveland Center
12:59PM 42.4889 -78.8431 87° East 499 574 37,000  Level Cleveland Center
01:00PM 42.4961 -78.6542 87° East 499 574 37,000  Level Cleveland Center
01:01PM 42.5033 -78.4681 87° East 499 574 37,000  Level Cleveland Center
01:02PM 42.5081 -78.2819 88° East 499 574 37,000  Level Cleveland Center
01:03PM 42.5125 -78.0931 88° East 499 574 37,000 -120 Level Cleveland Center
01:04PM 42.5167 -77.9069 88° East 499 574 36,800 -600 Descending Cleveland Center
01:05PM 42.5231 -77.7319 87° East 499 574 35,900 -900 Descending Cleveland Center
01:06PM 42.5306 -77.5400 87° East 505 581 35,000 -360 Descending Cleveland Center
01:07PM 42.5367 -77.1889 89° East 517 595 35,000  Level Boston Center
01:08PM 42.5397 -77.0086 89° East 495 570 35,000  Level Boston Center
01:09PM 42.5450 -76.8258 88° East 490 564 35,000  Level Boston Center
01:10PM 42.5481 -76.6369 89° East 490 564 35,000  Level Boston Center
01:11PM 42.5525 -76.4511 88° East 490 564 35,000  Level Boston Center
01:12PM 42.5528 -76.2622 90° East 496 571 35,000  Level Boston Center
01:13PM 42.5569 -76.0736 88° East 496 571 35,000  Level Boston Center
01:14PM 42.5581 -75.9017 89° East 496 571 35,000 -480 Level Boston Center
01:15PM 42.5617 -75.7131 88° East 496 571 34,100 -1,200 Descending Boston Center
01:16PM 42.5628 -75.5214 89° East 496 571 32,700 -1,140 Descending Boston Center
01:17PM 42.5700 -75.3328 87° East 496 571 31,900 -1,500 Descending Boston Center
01:18PM 42.5578 -75.1433 95° East 496 571 29,800 -2,520 Descending Boston Center
01:19PM 42.5286 -74.9703 103° East 484 557 26,900 -2,760 Descending Boston Center
01:20PM 42.4967 -74.8000 104° East 471 542 24,300 -2,520 Descending Boston Center
01:21PM 42.4794 -74.6303 98° East 461 531 21,900 -2,460 Descending Boston Center
01:22PM 42.4825 -74.4644 89° East 453 521 19,400 -1,980 Descending Boston Center
01:23PM 42.4833 -74.2897 90° East 430 495 18,000 -720 Descending Boston Center
01:24PM 42.4667 -74.1486 99° East 419 482 18,000 -60 Level Boston Center
01:25PM 42.4358 -73.9761 104° East 419 482 17,900 -540 Descending Boston Center
01:26PM 42.4106 -73.8375 104° East 424 488 17,000 -1,260 Descending Boston Center
01:27PM 42.3792 -73.6767 105° East 409 471 15,400 -1,740 Descending Boston Center
01:28PM 42.3575 -73.5611 104° East 404 465 13,900 -1,500 Descending Boston Center
01:29PM 42.3275 -73.4061 105° East 390 449 12,500 -1,380 Descending Boston Center
01:30PM 42.3100 -73.2514 99° East 379 436 11,000 -1,260 Descending Boston Center
01:31PM 42.3044 -73.1250 93° East 350 403 10,000 -1,260 Descending Boston Center
01:32PM 42.2989 -73.0069 94° East 323 372 8,500 -1,500 Descending Boston Center
01:33PM 42.2703 -72.9058 111° Southeast 291 335 7,000 -1,500 Descending Boston Center
01:34PM 42.2372 -72.8103 115° Southeast 275 316 5,500 -1,020 Descending Boston Center
01:35PM 42.2000 -72.7231 120° Southeast 267 307 5,000 -300 Descending Boston Center
01:36PM 42.1689 -72.6389 116° Southeast 258 297 5,000  Level Boston Center
01:37PM 42.1356 -72.5578 119° Southeast 253 291 5,000 -720 Level Boston Center
01:38PM 42.0753 -72.5325 163° South 232 267 3,500 -1,380 Descending Boston Center
01:39PM 42.0314 -72.5658 209° Southwest 192 221 2,300 -1,020 Descending Boston Center
01:40PM 42.0022 -72.6050 225° Southwest 175 201 1,600 -780 Descending Boston Center
01:41PM 41.9731 -72.6439 225° Southwest 159 183 800 -720 Descending Boston Center
01:42PM 41.9519 -72.6744 227° Southwest 146 168 200 -600 Descending Boston Center
01:44PM 41.9333 -72.6833 206° Southwest  Level FlightAware Approximate
01:51PM 41.9392 -72.6834 206° Southwest  Level Estimated